createdAt,value
2023-04-18T00:01:44.647Z,60.19
2023-04-18T00:04:14.285Z,60.28
2023-04-18T00:06:43.583Z,60.12
2023-04-18T00:09:11.639Z,59.72
2023-04-18T00:11:39.767Z,60.13
2023-04-18T00:14:08.497Z,59.75
2023-04-18T00:16:36.281Z,59.92
2023-04-18T00:19:05.818Z,59.81
2023-04-18T00:21:33.483Z,60.33
2023-04-18T00:24:02.814Z,59.95
2023-04-18T00:26:31.073Z,60.63
2023-04-18T00:28:58.814Z,60.08
2023-04-18T00:31:26.707Z,60.11
2023-04-18T00:33:54.944Z,60.48
2023-04-18T00:36:22.622Z,60.16
2023-04-18T00:38:50.274Z,60.43
2023-04-18T00:41:20.835Z,59.57
2023-04-18T00:43:48.532Z,60.16
2023-04-18T00:46:16.249Z,60.19
2023-04-18T00:48:44.578Z,60.51
2023-04-18T00:51:13.097Z,60.24
2023-04-18T00:53:42.022Z,61.00
2023-04-18T00:56:10.321Z,60.59
2023-04-18T00:58:40.539Z,60.61
2023-04-18T01:01:08.312Z,60.96
2023-04-18T01:06:27.629Z,60.69
2023-04-18T01:08:58.017Z,60.83
2023-04-18T01:11:25.741Z,60.28
2023-04-18T01:14:02.914Z,60.31
2023-04-18T01:16:32.578Z,60.85
2023-04-18T01:19:00.252Z,60.35
2023-04-18T01:21:34.536Z,60.69
2023-04-18T01:24:09.477Z,60.64
2023-04-18T01:26:37.786Z,60.52
2023-04-18T01:29:05.693Z,61.02
2023-04-18T01:31:35.934Z,60.91
2023-04-18T01:34:04.336Z,61.03
2023-04-18T01:36:32.033Z,60.87
2023-04-18T01:38:59.849Z,60.75
2023-04-18T01:41:33.082Z,60.96
2023-04-18T01:44:01.256Z,60.84
2023-04-18T01:46:29.154Z,60.59
2023-04-18T01:48:58.134Z,60.82
2023-04-18T01:51:26.323Z,61.18
2023-04-18T01:53:53.976Z,61.02
2023-04-18T01:56:22.482Z,60.92
2023-04-18T01:58:51.508Z,61.22
2023-04-18T02:01:19.513Z,60.84
2023-04-18T02:03:47.399Z,60.95
2023-04-18T02:06:15.327Z,61.16
2023-04-18T02:08:43.019Z,61.02
2023-04-18T02:11:10.798Z,60.85
2023-04-18T02:13:38.514Z,61.13
2023-04-18T02:16:13.199Z,61.10
2023-04-18T02:18:41.438Z,60.97
2023-04-18T02:21:11.082Z,61.03
2023-04-18T02:23:39.046Z,61.37
2023-04-18T02:26:06.747Z,60.74
2023-04-18T02:28:34.463Z,61.02
2023-04-18T02:31:02.605Z,61.07
2023-04-18T02:33:31.719Z,61.15
2023-04-18T02:35:59.393Z,61.14
2023-04-18T02:38:27.631Z,60.86
2023-04-18T02:40:56.009Z,60.94
2023-04-18T02:43:23.744Z,61.14
2023-04-18T02:45:52.038Z,60.71
2023-04-18T02:48:19.764Z,60.93
2023-04-18T02:50:48.841Z,60.86
2023-04-18T02:53:17.071Z,61.21
2023-04-18T02:55:44.724Z,60.77
2023-04-18T02:58:12.653Z,61.52
2023-04-18T03:00:40.924Z,61.32
2023-04-18T03:03:09.039Z,61.04
2023-04-18T03:05:36.699Z,61.13
2023-04-18T03:08:06.322Z,60.97
2023-04-18T03:10:33.839Z,61.20
2023-04-18T03:13:01.877Z,60.68
2023-04-18T03:15:31.615Z,60.94
2023-04-18T03:18:00.209Z,61.00
2023-04-18T03:20:27.923Z,60.97
2023-04-18T03:22:56.210Z,61.11
2023-04-18T03:25:25.300Z,60.97
2023-04-18T03:27:52.970Z,60.99
2023-04-18T03:30:22.680Z,61.05
2023-04-18T03:32:50.206Z,60.87
2023-04-18T03:35:17.996Z,60.78
2023-04-18T03:37:46.118Z,60.80
2023-04-18T03:40:14.075Z,61.03
2023-04-18T03:42:43.126Z,60.86
2023-04-18T03:45:11.772Z,60.62
2023-04-18T03:47:39.498Z,60.50
2023-04-18T03:50:08.042Z,60.54
2023-04-18T03:52:36.364Z,60.36
2023-04-18T03:55:04.213Z,60.47
2023-04-18T03:57:31.964Z,60.25
2023-04-18T04:00:01.600Z,60.26
2023-04-18T04:02:29.241Z,60.36
2023-04-18T04:04:57.227Z,59.99
2023-04-18T04:07:25.607Z,60.10
2023-04-18T04:09:53.258Z,60.18
2023-04-18T04:12:20.945Z,60.12
2023-04-18T04:14:49.129Z,60.29
2023-04-18T04:17:18.293Z,60.32
2023-04-18T04:19:45.974Z,59.92
2023-04-18T04:22:14.334Z,60.17
2023-04-18T04:24:42.741Z,60.06
2023-04-18T04:27:11.077Z,60.08
2023-04-18T04:29:39.828Z,59.91
2023-04-18T04:32:08.406Z,60.31
2023-04-18T04:34:37.806Z,60.17
2023-04-18T04:37:06.049Z,60.22
2023-04-18T04:39:33.723Z,60.52
2023-04-18T04:42:03.871Z,61.83
2023-04-18T04:44:32.191Z,62.21
2023-04-18T04:47:00.056Z,62.69
2023-04-18T04:49:27.768Z,61.02
2023-04-18T04:51:57.503Z,59.20
2023-04-18T04:54:25.587Z,58.96
2023-04-18T04:56:53.353Z,58.73
2023-04-18T04:59:21.480Z,58.75
2023-04-18T05:01:49.438Z,58.89
2023-04-18T05:04:17.973Z,58.70
2023-04-18T05:06:46.906Z,59.06
2023-04-18T05:09:15.939Z,58.69
2023-04-18T05:11:43.681Z,59.41
2023-04-18T05:14:13.280Z,58.93
2023-04-18T05:16:41.828Z,59.05
2023-04-18T05:19:09.537Z,59.69
2023-04-18T05:21:38.058Z,59.47
2023-04-18T05:24:05.779Z,59.37
2023-04-18T05:26:34.891Z,59.45
2023-04-18T05:29:03.165Z,59.71
2023-04-18T05:31:30.956Z,59.56
2023-04-18T05:33:58.718Z,59.88
2023-04-18T05:36:27.333Z,60.21
2023-04-18T05:38:55.024Z,59.49
2023-04-18T05:41:22.963Z,59.38
2023-04-18T05:44:02.348Z,59.48
2023-04-18T05:46:32.362Z,59.70
2023-04-18T05:49:00.177Z,59.32
2023-04-18T05:51:28.458Z,59.38
2023-04-18T05:53:56.260Z,59.19
2023-04-18T05:56:24.312Z,59.08
2023-04-18T05:58:53.356Z,58.63
2023-04-18T06:01:21.319Z,59.00
2023-04-18T06:03:49.718Z,59.00
2023-04-18T06:06:18.009Z,59.04
2023-04-18T06:08:45.679Z,58.67
2023-04-18T06:11:15.429Z,58.88
2023-04-18T06:13:43.307Z,58.61
2023-04-18T06:16:12.522Z,58.14
2023-04-18T06:18:40.388Z,57.91
2023-04-18T06:21:08.053Z,57.99
2023-04-18T06:23:35.724Z,57.96
2023-04-18T06:26:04.023Z,57.92
2023-04-18T06:28:31.694Z,57.19
2023-04-18T06:30:59.392Z,57.37
2023-04-18T06:33:31.313Z,57.50
2023-04-18T06:35:59.291Z,57.11
2023-04-18T06:38:27.134Z,56.69
2023-04-18T06:40:54.949Z,56.37
2023-04-18T06:43:22.991Z,56.30
2023-04-18T06:45:50.823Z,55.45
2023-04-18T06:48:18.826Z,56.57
2023-04-18T06:50:47.922Z,55.80
2023-04-18T06:53:15.670Z,56.20
2023-04-18T06:55:43.916Z,56.14
2023-04-18T06:58:13.643Z,56.62
2023-04-18T07:00:41.305Z,56.31
2023-04-18T07:03:13.860Z,56.26
2023-04-18T07:05:42.470Z,56.17
2023-04-18T07:08:11.545Z,55.72
2023-04-18T07:10:39.681Z,55.65
2023-04-18T07:13:07.432Z,55.78
2023-04-18T07:15:35.529Z,55.04
2023-04-18T07:18:03.418Z,54.84
2023-04-18T07:20:31.237Z,54.83
2023-04-18T07:22:58.931Z,55.14
2023-04-18T07:25:28.529Z,54.61
2023-04-18T07:27:56.204Z,54.67
2023-04-18T07:30:24.069Z,54.12
2023-04-18T07:32:52.662Z,53.58
2023-04-18T07:35:20.700Z,53.91
2023-04-18T07:37:48.791Z,53.09
2023-04-18T07:40:17.739Z,53.38
2023-04-18T07:42:47.031Z,52.97
2023-04-18T07:45:15.652Z,52.24
2023-04-18T07:47:44.144Z,52.15
2023-04-18T07:50:12.691Z,52.63
2023-04-18T07:52:40.664Z,52.62
2023-04-18T07:55:10.056Z,52.42
2023-04-18T07:57:37.904Z,52.75
2023-04-18T08:00:09.386Z,51.79
2023-04-18T08:02:38.166Z,51.10
2023-04-18T08:05:06.764Z,51.99
2023-04-18T08:07:34.887Z,52.31
2023-04-18T08:10:03.409Z,52.11
2023-04-18T08:12:32.620Z,52.49
2023-04-18T08:15:00.516Z,51.79
2023-04-18T08:17:30.173Z,52.28
2023-04-18T08:19:57.900Z,50.31
2023-04-18T08:22:25.893Z,50.96
2023-04-18T08:25:04.296Z,51.09
2023-04-18T08:27:33.922Z,50.90
2023-04-18T08:30:04.157Z,51.02
2023-04-18T08:32:33.941Z,51.84
2023-04-18T08:35:01.962Z,51.25
2023-04-18T08:37:30.228Z,51.89
2023-04-18T08:39:58.983Z,51.46
2023-04-18T08:42:27.498Z,50.93
2023-04-18T08:44:56.012Z,50.64
2023-04-18T08:47:24.021Z,51.18
2023-04-18T08:49:53.679Z,51.29
2023-04-18T08:52:21.709Z,51.94
2023-04-18T08:54:52.422Z,51.45
2023-04-18T08:57:27.384Z,50.09
2023-04-18T08:59:56.215Z,50.35
2023-04-18T09:02:38.961Z,50.12
2023-04-18T09:05:14.981Z,50.11
2023-04-18T09:07:44.005Z,49.79
2023-04-18T09:10:12.722Z,49.91
2023-04-18T09:12:50.843Z,49.24
2023-04-18T09:15:22.575Z,49.46
2023-04-18T09:17:54.086Z,50.05
2023-04-18T09:20:34.818Z,49.39
2023-04-18T09:23:05.429Z,48.85
2023-04-18T09:25:36.118Z,48.51
2023-04-18T09:28:05.913Z,48.41
2023-04-18T09:30:37.998Z,49.12
2023-04-18T09:33:10.005Z,47.96
2023-04-18T09:35:39.925Z,47.10
2023-04-18T09:38:09.024Z,47.89
2023-04-18T09:40:37.592Z,47.65
2023-04-18T09:43:20.535Z,46.34
2023-04-18T09:45:50.203Z,47.76
2023-04-18T09:48:17.884Z,48.96
2023-04-18T09:50:48.835Z,47.04
2023-04-18T09:53:21.044Z,47.44
2023-04-18T09:55:53.031Z,47.01
2023-04-18T09:58:24.436Z,47.04
2023-04-18T10:00:54.846Z,46.25
2023-04-18T10:03:27.671Z,46.66
2023-04-18T10:06:00.295Z,46.93
2023-04-18T10:08:29.296Z,46.77
2023-04-18T10:10:58.729Z,46.77
2023-04-18T10:13:29.485Z,47.04
2023-04-18T10:15:57.896Z,46.41
2023-04-18T10:18:25.996Z,45.63
2023-04-18T10:21:04.511Z,45.77
2023-04-18T10:23:36.894Z,45.54
2023-04-18T10:26:05.700Z,45.45
2023-04-18T10:28:53.080Z,46.07
2023-04-18T10:31:23.132Z,44.87
2023-04-18T10:34:18.190Z,46.54
2023-04-18T10:37:05.773Z,45.94
2023-04-18T10:39:49.127Z,45.78
2023-04-18T10:42:17.401Z,44.60
2023-04-18T10:44:45.323Z,44.12
2023-04-18T10:47:23.579Z,43.92
2023-04-18T10:49:57.126Z,43.99
2023-04-18T10:52:27.824Z,43.55
2023-04-18T10:55:26.067Z,42.09
2023-04-18T10:57:56.702Z,43.68
2023-04-18T11:00:24.934Z,43.87
2023-04-18T11:02:56.362Z,44.62
2023-04-18T11:05:26.692Z,43.46
2023-04-18T11:07:56.495Z,43.53
2023-04-18T11:10:26.388Z,43.39
2023-04-18T11:12:56.165Z,43.38
2023-04-18T11:15:24.848Z,43.36
2023-04-18T11:18:01.390Z,43.24
2023-04-18T11:20:30.286Z,43.74
2023-04-18T11:23:01.576Z,43.93
2023-04-18T11:25:32.259Z,43.02
2023-04-18T11:28:02.040Z,43.82
2023-04-18T11:30:37.131Z,44.16
2023-04-18T11:33:07.847Z,43.21
2023-04-18T11:35:38.885Z,43.93
2023-04-18T11:38:09.783Z,42.87
2023-04-18T11:40:38.235Z,43.54
2023-04-18T11:43:08.342Z,42.59
2023-04-18T11:45:36.947Z,42.20
2023-04-18T11:48:05.357Z,42.02
2023-04-18T11:50:37.739Z,42.20
2023-04-18T11:53:05.650Z,42.00
2023-04-18T11:55:35.096Z,41.94
2023-04-18T11:58:03.677Z,41.88
2023-04-18T12:00:35.399Z,42.29
2023-04-18T12:03:05.525Z,42.80
2023-04-18T12:05:36.119Z,42.04
2023-04-18T12:08:09.059Z,42.82
2023-04-18T12:10:39.157Z,42.76
2023-04-18T12:13:08.826Z,42.72
2023-04-18T12:15:40.417Z,41.78
2023-04-18T12:18:09.415Z,42.50
2023-04-18T12:20:38.880Z,41.80
2023-04-18T12:23:08.269Z,42.67
2023-04-18T12:25:36.517Z,42.35
2023-04-18T12:28:17.369Z,42.52
2023-04-18T12:30:45.289Z,42.74
2023-04-18T12:33:13.389Z,42.72
2023-04-18T12:35:41.711Z,42.44
2023-04-18T12:38:09.653Z,41.60
2023-04-18T12:40:40.930Z,41.90
2023-04-18T12:43:10.971Z,41.85
2023-04-18T12:45:38.845Z,41.88
2023-04-18T12:48:07.469Z,41.66
2023-04-18T12:50:36.144Z,42.37
2023-04-18T12:53:04.181Z,42.25
2023-04-18T12:55:32.170Z,41.57
2023-04-18T12:58:01.253Z,40.95
2023-04-18T13:00:32.435Z,40.85
2023-04-18T13:03:00.915Z,40.38
2023-04-18T13:05:33.606Z,40.80
2023-04-18T13:08:15.486Z,41.48
2023-04-18T13:10:46.320Z,41.86
2023-04-18T13:13:14.660Z,41.63
2023-04-18T13:15:45.536Z,40.89
2023-04-18T13:18:14.128Z,41.66
2023-04-18T13:20:42.040Z,41.93
2023-04-18T13:23:09.954Z,41.90
2023-04-18T13:25:38.603Z,42.55
2023-04-18T13:28:06.852Z,42.04
2023-04-18T13:30:35.832Z,42.36
2023-04-18T13:33:05.956Z,42.20
2023-04-18T13:35:33.878Z,41.97
2023-04-18T13:38:01.798Z,42.13
2023-04-18T13:40:30.162Z,41.78
2023-04-18T13:42:57.963Z,41.55
2023-04-18T13:45:25.976Z,42.06
2023-04-18T13:47:54.534Z,42.24
2023-04-18T13:50:24.513Z,41.18
2023-04-18T13:52:55.012Z,42.41
2023-04-18T13:55:22.905Z,41.71
2023-04-18T13:57:51.078Z,41.89
2023-04-18T14:00:20.546Z,42.11
2023-04-18T14:02:48.642Z,41.73
2023-04-18T14:05:16.571Z,42.01
2023-04-18T14:07:45.877Z,42.25
2023-04-18T14:10:13.755Z,42.03
2023-04-18T14:12:41.713Z,42.26
2023-04-18T14:15:11.207Z,42.54
2023-04-18T14:17:39.121Z,42.30
2023-04-18T14:20:08.539Z,42.38
2023-04-18T14:22:36.730Z,42.53
2023-04-18T14:25:06.950Z,42.00
2023-04-18T14:27:34.666Z,41.88
2023-04-18T14:30:03.321Z,41.45
2023-04-18T14:32:31.223Z,41.28
2023-04-18T14:34:59.833Z,41.94
2023-04-18T14:37:28.039Z,42.01
2023-04-18T14:39:55.841Z,42.10
2023-04-18T14:42:25.435Z,41.74
2023-04-18T14:44:53.284Z,42.22
2023-04-18T14:47:21.851Z,41.81
2023-04-18T14:49:50.268Z,42.22
2023-04-18T14:52:18.136Z,41.86
2023-04-18T14:54:46.033Z,41.87
2023-04-18T14:57:14.292Z,42.43
2023-04-18T14:59:43.990Z,43.01
2023-04-18T15:02:11.805Z,42.86
2023-04-18T15:04:40.052Z,43.24
2023-04-18T15:07:08.411Z,43.52
2023-04-18T15:09:37.684Z,43.00
2023-04-18T15:12:06.413Z,42.56
2023-04-18T15:14:35.434Z,42.75
2023-04-18T15:17:06.403Z,42.15
2023-04-18T15:19:34.543Z,42.46
2023-04-18T15:22:03.581Z,42.35
2023-04-18T15:24:31.585Z,42.56
2023-04-18T15:26:59.512Z,42.60
2023-04-18T15:29:27.474Z,42.60
2023-04-18T15:31:55.536Z,42.66
2023-04-18T15:34:25.031Z,42.53
2023-04-18T15:36:53.406Z,42.36
2023-04-18T15:39:23.511Z,42.66
2023-04-18T15:41:54.713Z,43.02
2023-04-18T15:44:22.721Z,43.90
2023-04-18T15:46:51.862Z,43.06
2023-04-18T15:49:20.158Z,44.03
2023-04-18T15:51:49.442Z,43.52
2023-04-18T15:54:17.367Z,43.59
2023-04-18T15:59:34.581Z,43.64
2023-04-18T16:04:51.716Z,44.36
2023-04-18T16:07:21.259Z,43.80
2023-04-18T16:09:49.098Z,43.91
2023-04-18T16:12:16.976Z,43.76
2023-04-18T16:14:45.061Z,43.79
2023-04-18T16:17:12.950Z,44.09
2023-04-18T16:19:41.110Z,44.60
2023-04-18T16:22:09.260Z,44.34
2023-04-18T16:24:39.512Z,44.33
2023-04-18T16:27:08.266Z,44.35
2023-04-18T16:29:36.383Z,44.37
2023-04-18T16:32:06.528Z,44.32
2023-04-18T16:34:34.505Z,44.34
2023-04-18T16:37:02.714Z,44.50
2023-04-18T16:39:31.188Z,44.56
2023-04-18T16:42:01.185Z,44.98
2023-04-18T16:44:29.146Z,44.81
2023-04-18T16:46:57.117Z,45.07
2023-04-18T16:49:25.344Z,45.18
2023-04-18T16:51:53.483Z,45.40
2023-04-18T16:54:21.498Z,45.72
2023-04-18T16:56:49.481Z,45.52
2023-04-18T16:59:19.439Z,45.36
2023-04-18T17:01:47.609Z,46.03
2023-04-18T17:04:16.189Z,46.00
2023-04-18T17:06:45.157Z,46.26
2023-04-18T17:09:13.810Z,46.13
2023-04-18T17:11:42.145Z,46.38
2023-04-18T17:14:11.107Z,46.80
2023-04-18T17:16:41.828Z,47.26
2023-04-18T17:19:10.557Z,47.00
2023-04-18T17:21:39.585Z,47.23
2023-04-18T17:24:08.316Z,46.98
2023-04-18T17:26:37.284Z,47.22
2023-04-18T17:29:06.276Z,46.87
2023-04-18T17:31:34.682Z,46.93
2023-04-18T17:34:04.540Z,47.20
2023-04-18T17:36:32.885Z,47.05
2023-04-18T17:39:06.656Z,46.56
2023-04-18T17:41:38.326Z,47.05
2023-04-18T17:44:07.510Z,46.90
2023-04-18T17:46:36.486Z,47.39
2023-04-18T17:49:06.113Z,47.41
2023-04-18T17:51:33.811Z,47.63
2023-04-18T17:54:01.833Z,48.10
2023-04-18T17:56:31.021Z,48.21
2023-04-18T17:58:59.071Z,47.82
2023-04-18T18:01:30.243Z,48.31
2023-04-18T18:03:59.367Z,48.03
2023-04-18T18:06:28.966Z,48.02
2023-04-18T18:08:56.776Z,48.63
2023-04-18T18:11:25.211Z,48.29
2023-04-18T18:13:54.709Z,48.07
2023-04-18T18:16:23.934Z,47.83
2023-04-18T18:18:52.839Z,47.95
2023-04-18T18:21:20.896Z,48.53
2023-04-18T18:23:50.269Z,48.76
2023-04-18T18:26:18.826Z,47.89
2023-04-18T18:28:46.884Z,48.75
2023-04-18T18:31:14.908Z,48.96
2023-04-18T18:33:43.595Z,48.43
2023-04-18T18:36:11.670Z,49.32
2023-04-18T18:38:39.716Z,48.65
2023-04-18T18:41:09.803Z,48.72
2023-04-18T18:43:37.769Z,49.02
2023-04-18T18:46:05.783Z,48.84
2023-04-18T18:48:37.582Z,48.42
2023-04-18T18:51:05.913Z,48.55
2023-04-18T18:53:33.863Z,48.47
2023-04-18T18:56:02.754Z,48.40
2023-04-18T18:58:32.388Z,48.67
2023-04-18T19:01:02.316Z,48.55
2023-04-18T19:03:30.650Z,48.66
2023-04-18T19:05:58.938Z,48.68
2023-04-18T19:08:27.620Z,48.86
2023-04-18T19:10:55.984Z,48.57
2023-04-18T19:13:24.463Z,49.29
2023-04-18T19:15:54.588Z,49.34
2023-04-18T19:18:22.616Z,49.21
2023-04-18T19:20:50.990Z,48.72
2023-04-18T19:23:20.068Z,48.92
2023-04-18T19:25:48.317Z,49.34
2023-04-18T19:28:18.311Z,49.08
2023-04-18T19:30:48.502Z,49.44
2023-04-18T19:33:18.232Z,49.63
2023-04-18T19:35:46.000Z,49.68
2023-04-18T19:38:14.888Z,49.03
2023-04-18T19:40:43.023Z,49.04
2023-04-18T19:43:11.207Z,49.26
2023-04-18T19:45:40.020Z,49.30
2023-04-18T19:48:08.326Z,49.52
2023-04-18T19:50:40.856Z,49.55
2023-04-18T19:53:09.281Z,49.54
2023-04-18T19:55:38.354Z,49.53
2023-04-18T19:58:07.001Z,49.89
2023-04-18T20:00:35.299Z,49.98
2023-04-18T20:03:03.338Z,49.58
2023-04-18T20:05:32.438Z,49.28
2023-04-18T20:08:01.879Z,49.34
2023-04-18T20:10:30.035Z,49.40
2023-04-18T20:12:58.575Z,49.86
2023-04-18T20:15:26.676Z,49.38
2023-04-18T20:17:54.744Z,50.30
2023-04-18T20:20:23.405Z,50.37
2023-04-18T20:22:51.287Z,50.90
2023-04-18T20:25:20.942Z,51.04
2023-04-18T20:27:48.910Z,50.30
2023-04-18T20:30:16.906Z,50.32
2023-04-18T20:32:44.883Z,50.67
2023-04-18T20:35:13.458Z,50.12
2023-04-18T20:37:41.475Z,50.54
2023-04-18T20:40:10.774Z,50.21
2023-04-18T20:42:40.363Z,51.02
2023-04-18T20:45:11.233Z,50.82
2023-04-18T20:47:40.241Z,50.06
2023-04-18T20:50:09.662Z,50.42
2023-04-18T20:52:37.835Z,51.02
2023-04-18T20:55:06.456Z,50.52
2023-04-18T20:57:34.349Z,50.58
2023-04-18T21:00:06.349Z,50.85
2023-04-18T21:02:34.527Z,50.79
2023-04-18T21:05:02.574Z,50.45
2023-04-18T21:07:31.460Z,50.52
2023-04-18T21:09:59.408Z,50.98
2023-04-18T21:12:28.849Z,51.10
2023-04-18T21:14:57.015Z,51.17
2023-04-18T21:17:28.126Z,51.30
2023-04-18T21:19:56.299Z,50.93
2023-04-18T21:22:24.786Z,51.17
2023-04-18T21:24:52.696Z,50.83
2023-04-18T21:27:20.677Z,51.10
2023-04-18T21:29:49.276Z,51.10
2023-04-18T21:32:17.432Z,50.79
2023-04-18T21:34:46.725Z,51.07
2023-04-18T21:37:14.958Z,51.10
2023-04-18T21:39:43.371Z,51.25
2023-04-18T21:42:11.966Z,51.48
2023-04-18T21:44:40.651Z,51.15
2023-04-18T21:47:08.756Z,50.99
2023-04-18T21:49:36.766Z,51.26
2023-04-18T21:52:08.251Z,51.58
2023-04-18T21:54:36.223Z,51.84
2023-04-18T21:57:05.946Z,51.77
2023-04-18T21:59:34.705Z,51.79
2023-04-18T22:02:02.707Z,52.02
2023-04-18T22:04:30.852Z,51.76
2023-04-18T22:06:59.436Z,51.80
2023-04-18T22:09:29.690Z,51.95
2023-04-18T22:11:57.795Z,51.76
2023-04-18T22:14:26.436Z,52.62
2023-04-18T22:16:54.615Z,52.40
2023-04-18T22:19:22.865Z,52.14
2023-04-18T22:21:51.246Z,51.65
2023-04-18T22:24:19.721Z,52.16
2023-04-18T22:26:49.181Z,51.92
2023-04-18T22:29:17.418Z,52.55
2023-04-18T22:31:45.537Z,52.54
2023-04-18T22:34:14.219Z,52.52
2023-04-18T22:36:43.449Z,52.17
2023-04-18T22:39:12.138Z,52.46
2023-04-18T22:41:39.884Z,51.98
2023-04-18T22:44:09.397Z,52.04
2023-04-18T22:46:38.475Z,51.89
2023-04-18T22:49:07.232Z,52.52
2023-04-18T22:51:35.658Z,52.11
2023-04-18T22:54:03.403Z,52.32
2023-04-18T22:56:31.129Z,52.52
2023-04-18T22:58:59.667Z,52.16
2023-04-18T23:01:28.849Z,52.61
2023-04-18T23:03:56.816Z,52.41
2023-04-18T23:06:25.085Z,52.30
2023-04-18T23:08:52.952Z,52.26
2023-04-18T23:11:21.157Z,52.04
2023-04-18T23:13:49.549Z,52.60
2023-04-18T23:16:17.558Z,52.67
2023-04-18T23:18:46.687Z,52.62
2023-04-18T23:21:15.104Z,52.62
2023-04-18T23:23:42.845Z,52.33
2023-04-18T23:26:14.547Z,52.90
2023-04-18T23:28:42.882Z,52.53
2023-04-18T23:31:10.652Z,52.30
2023-04-18T23:33:38.417Z,52.77
2023-04-18T23:36:09.112Z,52.94
2023-04-18T23:38:38.391Z,52.41
2023-04-18T23:41:06.714Z,52.36
2023-04-18T23:43:35.381Z,52.55
2023-04-18T23:46:03.295Z,52.27
2023-04-18T23:48:31.156Z,53.08
2023-04-18T23:50:59.478Z,52.42
2023-04-18T23:53:28.589Z,52.53
2023-04-18T23:55:56.653Z,52.42
2023-04-18T23:58:27.073Z,52.89
